UAL1313 KDEN-KABQ
Flight info
| Callsign | UAL1313 |
|---|---|
| Flight time | 1h 0m |
| Altitude | 38000 |
| Route | SMMUR2 DAAYE DATME SNDIA4 |
| Aircraft | B738/M-SDE2E3FGHIRWXY/LB1 |
Departure
| Time | 2026-05-05 23:42 |
|---|---|
| Airport | Denver International Airport (KDEN) |
Arrival
| Time | 2026-05-06 00:42 |
|---|---|
| Airport | Albuquerque International Sunport (KABQ) |
| Time | Latitude | Longitude | Altitude | Speed | Heading |
|---|---|---|---|---|---|
| 2026-05-05 23:24 | 39.85462 | -104.67714 | 5365 ft | 0 kts | 185° |
| 2026-05-05 23:32 | 39.85474 | -104.67712 | 5363 ft | 3 kts | 180° |
| 2026-05-05 23:32 | 39.85494 | -104.67714 | 5363 ft | 3 kts | 166° |
| 2026-05-05 23:32 | 39.85512 | -104.67723 | 5365 ft | 3 kts | 141° |
| 2026-05-05 23:33 | 39.85523 | -104.67739 | 5361 ft | 2 kts | 100° |
| 2026-05-05 23:33 | 39.85524 | -104.67746 | 5361 ft | 1 kts | 91° |
| 2026-05-05 23:35 | 39.85523 | -104.67687 | 5362 ft | 11 kts | 90° |
| 2026-05-05 23:35 | 39.85532 | -104.67593 | 5365 ft | 10 kts | 74° |
| 2026-05-05 23:36 | 39.85553 | -104.67505 | 5364 ft | 10 kts | 72° |
| 2026-05-05 23:36 | 39.85585 | -104.67372 | 5365 ft | 18 kts | 77° |
| 2026-05-05 23:36 | 39.85589 | -104.67214 | 5364 ft | 17 kts | 91° |
| 2026-05-05 23:36 | 39.85589 | -104.67060 | 5365 ft | 17 kts | 90° |
| 2026-05-05 23:37 | 39.85588 | -104.66912 | 5364 ft | 16 kts | 90° |
| 2026-05-05 23:37 | 39.85587 | -104.66770 | 5365 ft | 15 kts | 90° |
| 2026-05-05 23:37 | 39.85586 | -104.66630 | 5365 ft | 16 kts | 91° |
| 2026-05-05 23:37 | 39.85584 | -104.66487 | 5365 ft | 16 kts | 91° |
| 2026-05-05 23:38 | 39.85583 | -104.66333 | 5365 ft | 15 kts | 90° |
| 2026-05-05 23:38 | 39.85613 | -104.66239 | 5365 ft | 6 kts | 26° |
| 2026-05-05 23:38 | 39.85684 | -104.66233 | 5363 ft | 16 kts | 0° |
| 2026-05-05 23:38 | 39.85806 | -104.66232 | 5365 ft | 17 kts | 0° |
| 2026-05-05 23:39 | 39.85926 | -104.66231 | 5364 ft | 19 kts | 0° |
| 2026-05-05 23:39 | 39.86083 | -104.66229 | 5364 ft | 31 kts | 0° |
| 2026-05-05 23:39 | 39.86291 | -104.66226 | 5364 ft | 29 kts | 0° |
| 2026-05-05 23:39 | 39.86488 | -104.66223 | 5363 ft | 28 kts | 0° |
| 2026-05-05 23:40 | 39.86675 | -104.66221 | 5365 ft | 26 kts | 1° |
| 2026-05-05 23:40 | 39.86850 | -104.66219 | 5363 ft | 24 kts | 1° |
| 2026-05-05 23:40 | 39.87012 | -104.66217 | 5362 ft | 23 kts | 0° |
| 2026-05-05 23:40 | 39.87171 | -104.66215 | 5362 ft | 25 kts | 0° |
| 2026-05-05 23:41 | 39.87383 | -104.66213 | 5365 ft | 36 kts | 1° |
| 2026-05-05 23:41 | 39.87635 | -104.66208 | 5364 ft | 21 kts | 0° |
| 2026-05-05 23:41 | 39.87749 | -104.66171 | 5365 ft | 17 kts | 53° |
| 2026-05-05 23:41 | 39.87754 | -104.65977 | 5364 ft | 28 kts | 95° |
| 2026-05-05 23:42 | 39.87756 | -104.65529 | 5364 ft | 89 kts | 89° |
| 2026-05-05 23:42 | 39.87748 | -104.64385 | 5375 ft | 160 kts | 90° |
| 2026-05-05 23:42 | 39.87740 | -104.62804 | 6083 ft | 185 kts | 87° |
| 2026-05-05 23:42 | 39.87604 | -104.61064 | 6970 ft | 200 kts | 109° |
| 2026-05-05 23:43 | 39.87057 | -104.59370 | 7804 ft | 215 kts | 111° |
| 2026-05-05 23:43 | 39.86468 | -104.57439 | 8139 ft | 241 kts | 111° |
| 2026-05-05 23:43 | 39.85825 | -104.55299 | 8412 ft | 267 kts | 111° |
| 2026-05-05 23:43 | 39.85132 | -104.52991 | 9125 ft | 278 kts | 112° |
| 2026-05-05 23:44 | 39.84425 | -104.50634 | 9756 ft | 280 kts | 112° |
| 2026-05-05 23:44 | 39.83710 | -104.48258 | 9996 ft | 285 kts | 112° |
| 2026-05-05 23:44 | 39.82982 | -104.45846 | 9993 ft | 287 kts | 113° |
| 2026-05-05 23:44 | 39.82255 | -104.43437 | 10002 ft | 284 kts | 113° |
| 2026-05-05 23:45 | 39.81482 | -104.41093 | 9991 ft | 281 kts | 123° |
| 2026-05-05 23:45 | 39.80139 | -104.39315 | 9980 ft | 276 kts | 148° |
| 2026-05-05 23:45 | 39.78336 | -104.38334 | 10164 ft | 293 kts | 165° |
| 2026-05-05 23:45 | 39.76297 | -104.37645 | 10344 ft | 320 kts | 167° |
| 2026-05-05 23:46 | 39.74060 | -104.36888 | 10597 ft | 343 kts | 166° |
| 2026-05-05 23:46 | 39.71686 | -104.36183 | 11066 ft | 355 kts | 173° |
| 2026-05-05 23:46 | 39.69218 | -104.36271 | 11700 ft | 359 kts | 197° |
| 2026-05-05 23:46 | 39.66918 | -104.37506 | 12554 ft | 357 kts | 209° |
| 2026-05-05 23:47 | 39.64718 | -104.38993 | 13471 ft | 357 kts | 210° |
| 2026-05-05 23:47 | 39.62464 | -104.40404 | 14220 ft | 362 kts | 207° |
| 2026-05-05 23:47 | 39.60105 | -104.41627 | 14871 ft | 367 kts | 205° |
| 2026-05-05 23:47 | 39.57713 | -104.42809 | 15520 ft | 372 kts | 206° |
| 2026-05-05 23:48 | 39.55305 | -104.44028 | 16176 ft | 375 kts | 206° |
| 2026-05-05 23:48 | 39.52915 | -104.45399 | 16816 ft | 375 kts | 214° |
| 2026-05-05 23:48 | 39.50984 | -104.47571 | 17440 ft | 367 kts | 236° |
| 2026-05-05 23:48 | 39.49511 | -104.50279 | 18131 ft | 369 kts | 239° |
| 2026-05-05 23:49 | 39.48029 | -104.53003 | 18704 ft | 373 kts | 236° |
| 2026-05-05 23:49 | 39.46391 | -104.55634 | 19248 ft | 377 kts | 233° |
| 2026-05-05 23:49 | 39.44678 | -104.58224 | 19789 ft | 381 kts | 233° |
| 2026-05-05 23:49 | 39.42955 | -104.60852 | 20318 ft | 384 kts | 233° |
| 2026-05-05 23:50 | 39.41250 | -104.63523 | 20842 ft | 387 kts | 234° |
| 2026-05-05 23:50 | 39.39543 | -104.66239 | 21314 ft | 391 kts | 234° |
| 2026-05-05 23:50 | 39.37825 | -104.68989 | 21798 ft | 395 kts | 234° |
| 2026-05-05 23:50 | 39.36097 | -104.71760 | 22276 ft | 398 kts | 234° |
| 2026-05-05 23:51 | 39.34352 | -104.74557 | 22745 ft | 401 kts | 234° |
| 2026-05-05 23:51 | 39.32598 | -104.77366 | 23224 ft | 404 kts | 234° |
| 2026-05-05 23:51 | 39.30825 | -104.80200 | 23653 ft | 407 kts | 233° |
| 2026-05-05 23:51 | 39.29042 | -104.83048 | 24004 ft | 410 kts | 233° |
| 2026-05-05 23:52 | 39.27242 | -104.85919 | 24384 ft | 412 kts | 233° |
| 2026-05-05 23:52 | 39.25434 | -104.88799 | 24753 ft | 415 kts | 233° |
| 2026-05-05 23:52 | 39.23608 | -104.91707 | 25113 ft | 417 kts | 233° |
| 2026-05-05 23:52 | 39.21803 | -104.94578 | 25469 ft | 419 kts | 233° |
| 2026-05-05 23:53 | 39.19963 | -104.97504 | 25819 ft | 422 kts | 233° |
| 2026-05-05 23:53 | 39.18104 | -105.00456 | 26116 ft | 425 kts | 233° |
| 2026-05-05 23:53 | 39.16233 | -105.03424 | 26453 ft | 427 kts | 233° |
| 2026-05-05 23:53 | 39.14121 | -105.06134 | 26745 ft | 436 kts | 218° |
| 2026-05-05 23:54 | 39.11464 | -105.08070 | 27126 ft | 441 kts | 209° |
| 2026-05-05 23:54 | 39.08664 | -105.09698 | 27475 ft | 443 kts | 207° |
| 2026-05-05 23:54 | 39.05827 | -105.11287 | 27780 ft | 445 kts | 208° |
| 2026-05-05 23:54 | 39.03021 | -105.12986 | 28084 ft | 445 kts | 210° |
| 2026-05-05 23:55 | 39.00282 | -105.14839 | 28400 ft | 446 kts | 212° |
| 2026-05-05 23:55 | 38.97559 | -105.16744 | 28800 ft | 444 kts | 212° |
| 2026-05-05 23:55 | 38.94850 | -105.18619 | 29309 ft | 441 kts | 212° |
| 2026-05-05 23:55 | 38.92141 | -105.20449 | 29853 ft | 438 kts | 211° |
| 2026-05-05 23:56 | 38.89444 | -105.22229 | 30337 ft | 435 kts | 211° |
| 2026-05-05 23:56 | 38.86755 | -105.23974 | 30812 ft | 430 kts | 211° |
| 2026-05-05 23:56 | 38.84097 | -105.25685 | 31331 ft | 426 kts | 211° |
| 2026-05-05 23:56 | 38.81458 | -105.27377 | 31822 ft | 422 kts | 212° |
| 2026-05-05 23:57 | 38.78849 | -105.29049 | 32302 ft | 418 kts | 212° |
| 2026-05-05 23:57 | 38.76257 | -105.30710 | 32774 ft | 414 kts | 212° |
| 2026-05-05 23:57 | 38.73695 | -105.32353 | 33264 ft | 410 kts | 213° |
| 2026-05-05 23:57 | 38.71152 | -105.33983 | 33743 ft | 407 kts | 213° |
| 2026-05-05 23:58 | 38.68631 | -105.35599 | 34138 ft | 404 kts | 213° |
| 2026-05-05 23:58 | 38.66126 | -105.37205 | 34421 ft | 403 kts | 213° |
| 2026-05-05 23:58 | 38.63617 | -105.38814 | 34676 ft | 403 kts | 213° |
| 2026-05-05 23:58 | 38.61114 | -105.40417 | 34935 ft | 403 kts | 213° |
| 2026-05-05 23:59 | 38.58608 | -105.42019 | 35225 ft | 402 kts | 213° |
| 2026-05-05 23:59 | 38.56114 | -105.43611 | 35519 ft | 401 kts | 213° |
| 2026-05-05 23:59 | 38.53621 | -105.45201 | 35789 ft | 400 kts | 213° |
| 2026-05-05 23:59 | 38.51137 | -105.46785 | 36022 ft | 399 kts | 213° |
| 2026-05-06 00:00 | 38.48650 | -105.48371 | 36280 ft | 399 kts | 213° |
| 2026-05-06 00:00 | 38.46167 | -105.49951 | 36554 ft | 398 kts | 213° |
| 2026-05-06 00:00 | 38.43693 | -105.51524 | 36770 ft | 398 kts | 213° |
| 2026-05-06 00:00 | 38.41244 | -105.53065 | 37040 ft | 397 kts | 213° |
| 2026-05-06 00:01 | 38.38735 | -105.54626 | 37310 ft | 396 kts | 213° |
| 2026-05-06 00:01 | 38.36290 | -105.56141 | 37545 ft | 395 kts | 213° |
| 2026-05-06 00:01 | 38.33821 | -105.57670 | 37778 ft | 395 kts | 213° |
| 2026-05-06 00:01 | 38.31342 | -105.59207 | 37824 ft | 397 kts | 213° |
| 2026-05-06 00:02 | 38.26378 | -105.62284 | 37816 ft | 396 kts | 213° |
| 2026-05-06 00:02 | 38.21453 | -105.65332 | 37795 ft | 392 kts | 213° |
| 2026-05-06 00:03 | 38.16575 | -105.68349 | 37783 ft | 388 kts | 213° |
| 2026-05-06 00:03 | 38.11722 | -105.71347 | 37763 ft | 386 kts | 213° |
| 2026-05-06 00:04 | 38.06869 | -105.74347 | 37756 ft | 391 kts | 213° |
| 2026-05-06 00:04 | 38.01954 | -105.77366 | 37702 ft | 393 kts | 212° |
| 2026-05-06 00:05 | 37.93940 | -105.80273 | 37676 ft | 403 kts | 199° |
| 2026-05-06 00:06 | 37.88428 | -105.81377 | 37661 ft | 399 kts | 199° |
| 2026-05-06 00:06 | 37.83003 | -105.82554 | 37651 ft | 393 kts | 200° |
| 2026-05-06 00:07 | 37.77656 | -105.83846 | 37659 ft | 390 kts | 201° |
| 2026-05-06 00:07 | 37.72352 | -105.85182 | 37708 ft | 388 kts | 201° |
| 2026-05-06 00:08 | 37.67052 | -105.86527 | 37758 ft | 388 kts | 201° |
| 2026-05-06 00:08 | 37.61743 | -105.87871 | 37804 ft | 390 kts | 201° |
| 2026-05-06 00:09 | 37.56396 | -105.89222 | 37856 ft | 394 kts | 201° |
| 2026-05-06 00:09 | 37.51032 | -105.90573 | 37882 ft | 397 kts | 201° |
| 2026-05-06 00:10 | 37.45608 | -105.91933 | 37875 ft | 398 kts | 201° |
| 2026-05-06 00:10 | 37.40177 | -105.93293 | 37877 ft | 398 kts | 201° |
| 2026-05-06 00:11 | 37.34750 | -105.94650 | 37865 ft | 397 kts | 201° |
| 2026-05-06 00:11 | 37.29333 | -105.96004 | 37830 ft | 397 kts | 201° |
| 2026-05-06 00:12 | 37.23926 | -105.97354 | 37797 ft | 396 kts | 201° |
| 2026-05-06 00:12 | 37.18527 | -105.98700 | 37767 ft | 395 kts | 201° |
| 2026-05-06 00:13 | 37.13133 | -106.00044 | 37737 ft | 395 kts | 201° |
| 2026-05-06 00:13 | 37.07745 | -106.01383 | 37720 ft | 394 kts | 201° |
| 2026-05-06 00:14 | 37.02365 | -106.02718 | 37735 ft | 394 kts | 201° |
| 2026-05-06 00:14 | 36.96995 | -106.04050 | 37746 ft | 393 kts | 201° |
| 2026-05-06 00:15 | 36.91631 | -106.05377 | 37761 ft | 392 kts | 201° |
| 2026-05-06 00:15 | 36.86293 | -106.06696 | 37764 ft | 390 kts | 201° |
| 2026-05-06 00:16 | 36.80980 | -106.08007 | 37783 ft | 388 kts | 201° |
| 2026-05-06 00:16 | 36.75695 | -106.09311 | 37779 ft | 386 kts | 201° |
| 2026-05-06 00:17 | 36.70431 | -106.10607 | 37779 ft | 385 kts | 201° |
| 2026-05-06 00:17 | 36.66075 | -106.11700 | 37770 ft | 382 kts | 203° |
| 2026-05-06 00:18 | 36.61070 | -106.13580 | 37790 ft | 372 kts | 209° |
| 2026-05-06 00:18 | 36.55470 | -106.16335 | 37078 ft | 373 kts | 210° |
| 2026-05-06 00:18 | 36.53844 | -106.17118 | 36685 ft | 370 kts | 210° |
| 2026-05-06 00:19 | 36.51442 | -106.18237 | 36080 ft | 367 kts | 210° |
| 2026-05-06 00:19 | 36.49045 | -106.19326 | 35439 ft | 366 kts | 210° |
| 2026-05-06 00:19 | 36.46653 | -106.20397 | 34752 ft | 366 kts | 210° |
| 2026-05-06 00:19 | 36.44256 | -106.21464 | 34055 ft | 365 kts | 210° |
| 2026-05-06 00:20 | 36.41865 | -106.22525 | 33353 ft | 364 kts | 210° |
| 2026-05-06 00:20 | 36.39512 | -106.23569 | 32605 ft | 363 kts | 210° |
| 2026-05-06 00:20 | 36.37137 | -106.24622 | 31859 ft | 363 kts | 210° |
| 2026-05-06 00:20 | 36.34758 | -106.25677 | 31157 ft | 362 kts | 210° |
| 2026-05-06 00:21 | 36.32413 | -106.26709 | 30679 ft | 356 kts | 210° |
| 2026-05-06 00:21 | 36.30086 | -106.27732 | 30158 ft | 353 kts | 210° |
| 2026-05-06 00:21 | 36.27785 | -106.28745 | 29579 ft | 350 kts | 210° |
| 2026-05-06 00:21 | 36.25506 | -106.29749 | 28972 ft | 346 kts | 210° |
| 2026-05-06 00:22 | 36.23247 | -106.30744 | 28433 ft | 343 kts | 209° |
| 2026-05-06 00:22 | 36.21017 | -106.31727 | 27898 ft | 338 kts | 209° |
| 2026-05-06 00:22 | 36.18799 | -106.32705 | 27374 ft | 339 kts | 209° |
| 2026-05-06 00:22 | 36.16534 | -106.33711 | 26861 ft | 354 kts | 208° |
| 2026-05-06 00:23 | 36.14161 | -106.34763 | 26295 ft | 367 kts | 208° |
| 2026-05-06 00:23 | 36.11759 | -106.35812 | 25730 ft | 364 kts | 207° |
| 2026-05-06 00:23 | 36.09380 | -106.36837 | 25183 ft | 361 kts | 207° |
| 2026-05-06 00:23 | 36.07007 | -106.37857 | 24617 ft | 360 kts | 206° |
| 2026-05-06 00:24 | 36.04650 | -106.38871 | 24065 ft | 358 kts | 206° |
| 2026-05-06 00:24 | 36.02296 | -106.39885 | 23509 ft | 358 kts | 206° |
| 2026-05-06 00:24 | 35.99951 | -106.40896 | 22884 ft | 358 kts | 206° |
| 2026-05-06 00:24 | 35.97606 | -106.41907 | 22313 ft | 355 kts | 206° |
| 2026-05-06 00:25 | 35.95304 | -106.42894 | 22120 ft | 343 kts | 206° |
| 2026-05-06 00:25 | 35.93110 | -106.43830 | 21945 ft | 324 kts | 206° |
| 2026-05-06 00:25 | 35.91043 | -106.44713 | 21777 ft | 307 kts | 206° |
| 2026-05-06 00:25 | 35.89039 | -106.45558 | 21342 ft | 302 kts | 206° |
| 2026-05-06 00:26 | 35.87031 | -106.46386 | 20953 ft | 309 kts | 205° |
| 2026-05-06 00:26 | 35.84935 | -106.47250 | 20539 ft | 328 kts | 205° |
| 2026-05-06 00:26 | 35.82747 | -106.48148 | 20094 ft | 332 kts | 204° |
| 2026-05-06 00:26 | 35.80559 | -106.49036 | 19627 ft | 331 kts | 204° |
| 2026-05-06 00:27 | 35.78405 | -106.49907 | 19194 ft | 329 kts | 204° |
| 2026-05-06 00:27 | 35.76239 | -106.50786 | 18771 ft | 328 kts | 204° |
| 2026-05-06 00:27 | 35.74070 | -106.51669 | 18308 ft | 328 kts | 204° |
| 2026-05-06 00:27 | 35.71910 | -106.52548 | 17836 ft | 326 kts | 204° |
| 2026-05-06 00:28 | 35.69761 | -106.53422 | 17362 ft | 324 kts | 203° |
| 2026-05-06 00:28 | 35.67613 | -106.54294 | 16988 ft | 319 kts | 204° |
| 2026-05-06 00:28 | 35.65534 | -106.55141 | 16534 ft | 318 kts | 203° |
| 2026-05-06 00:28 | 35.63413 | -106.56004 | 16112 ft | 315 kts | 203° |
| 2026-05-06 00:29 | 35.61364 | -106.56837 | 15700 ft | 314 kts | 203° |
| 2026-05-06 00:29 | 35.59263 | -106.57696 | 15305 ft | 312 kts | 204° |
| 2026-05-06 00:29 | 35.57322 | -106.58610 | 15205 ft | 293 kts | 207° |
| 2026-05-06 00:29 | 35.55522 | -106.59597 | 15088 ft | 275 kts | 210° |
| 2026-05-06 00:30 | 35.53834 | -106.60564 | 15004 ft | 260 kts | 210° |
| 2026-05-06 00:30 | 35.52228 | -106.61462 | 14908 ft | 247 kts | 209° |
| 2026-05-06 00:30 | 35.50696 | -106.62301 | 14730 ft | 237 kts | 209° |
| 2026-05-06 00:30 | 35.49206 | -106.63109 | 14357 ft | 232 kts | 209° |
| 2026-05-06 00:31 | 35.47721 | -106.63916 | 13845 ft | 235 kts | 209° |
| 2026-05-06 00:31 | 35.46219 | -106.64729 | 13412 ft | 236 kts | 209° |
| 2026-05-06 00:31 | 35.44723 | -106.65537 | 12951 ft | 235 kts | 208° |
| 2026-05-06 00:31 | 35.43228 | -106.66343 | 12516 ft | 234 kts | 208° |
| 2026-05-06 00:32 | 35.41738 | -106.67145 | 12045 ft | 235 kts | 208° |
| 2026-05-06 00:32 | 35.40247 | -106.67949 | 11649 ft | 233 kts | 208° |
| 2026-05-06 00:32 | 35.38764 | -106.68746 | 11195 ft | 233 kts | 208° |
| 2026-05-06 00:32 | 35.37290 | -106.69540 | 10823 ft | 230 kts | 208° |
| 2026-05-06 00:33 | 35.35821 | -106.70330 | 10412 ft | 231 kts | 208° |
| 2026-05-06 00:33 | 35.34357 | -106.71116 | 10095 ft | 227 kts | 208° |
| 2026-05-06 00:33 | 35.32955 | -106.71866 | 10022 ft | 213 kts | 208° |
| 2026-05-06 00:33 | 35.31634 | -106.72571 | 9936 ft | 200 kts | 208° |
| 2026-05-06 00:34 | 35.30366 | -106.73197 | 9692 ft | 198 kts | 198° |
| 2026-05-06 00:34 | 35.28970 | -106.73040 | 9306 ft | 211 kts | 160° |
| 2026-05-06 00:34 | 35.27840 | -106.71850 | 8982 ft | 220 kts | 130° |
| 2026-05-06 00:34 | 35.27042 | -106.70253 | 8744 ft | 217 kts | 124° |
| 2026-05-06 00:35 | 35.26344 | -106.68705 | 8737 ft | 200 kts | 123° |
| 2026-05-06 00:35 | 35.25699 | -106.67286 | 8751 ft | 183 kts | 125° |
| 2026-05-06 00:35 | 35.25075 | -106.65941 | 8765 ft | 181 kts | 125° |
| 2026-05-06 00:35 | 35.24455 | -106.64618 | 8762 ft | 178 kts | 126° |
| 2026-05-06 00:36 | 35.23835 | -106.63300 | 8778 ft | 179 kts | 126° |
| 2026-05-06 00:36 | 35.23210 | -106.61972 | 8778 ft | 180 kts | 125° |
| 2026-05-06 00:36 | 35.22582 | -106.60641 | 8780 ft | 181 kts | 125° |
| 2026-05-06 00:36 | 35.21720 | -106.59637 | 8779 ft | 164 kts | 166° |
| 2026-05-06 00:37 | 35.20656 | -106.59114 | 8787 ft | 168 kts | 162° |
| 2026-05-06 00:37 | 35.19614 | -106.58489 | 8714 ft | 172 kts | 160° |
| 2026-05-06 00:37 | 35.18544 | -106.57831 | 8473 ft | 169 kts | 160° |
| 2026-05-06 00:37 | 35.17501 | -106.57193 | 8296 ft | 167 kts | 160° |
| 2026-05-06 00:38 | 35.16461 | -106.56563 | 8146 ft | 166 kts | 160° |
| 2026-05-06 00:38 | 35.15416 | -106.55947 | 8011 ft | 166 kts | 161° |
| 2026-05-06 00:38 | 35.14379 | -106.55331 | 7814 ft | 165 kts | 160° |
| 2026-05-06 00:38 | 35.13350 | -106.54712 | 7661 ft | 166 kts | 160° |
| 2026-05-06 00:39 | 35.12298 | -106.54089 | 7494 ft | 169 kts | 160° |
| 2026-05-06 00:39 | 35.11242 | -106.53492 | 7318 ft | 167 kts | 161° |
| 2026-05-06 00:39 | 35.10192 | -106.52899 | 7195 ft | 166 kts | 161° |
| 2026-05-06 00:39 | 35.09143 | -106.52310 | 7049 ft | 166 kts | 159° |
| 2026-05-06 00:40 | 35.08102 | -106.51690 | 6857 ft | 167 kts | 160° |
| 2026-05-06 00:40 | 35.07051 | -106.51101 | 6769 ft | 167 kts | 161° |
| 2026-05-06 00:40 | 35.05928 | -106.50708 | 6776 ft | 169 kts | 183° |
| 2026-05-06 00:40 | 35.04920 | -106.51192 | 6568 ft | 152 kts | 231° |
| 2026-05-06 00:41 | 35.04518 | -106.52323 | 6459 ft | 147 kts | 261° |
| 2026-05-06 00:41 | 35.04377 | -106.53564 | 6341 ft | 149 kts | 268° |
| 2026-05-06 00:41 | 35.04364 | -106.54843 | 5993 ft | 150 kts | 271° |
| 2026-05-06 00:41 | 35.04390 | -106.56112 | 5674 ft | 150 kts | 270° |
| 2026-05-06 00:42 | 35.04398 | -106.57420 | 5394 ft | 158 kts | 270° |
| 2026-05-06 00:42 | 35.04417 | -106.58693 | 5321 ft | 130 kts | 266° |
| 2026-05-06 00:42 | 35.04418 | -106.59361 | 5319 ft | 52 kts | 270° |
| 2026-05-06 00:42 | 35.04432 | -106.59650 | 5314 ft | 20 kts | 283° |
| 2026-05-06 00:43 | 35.04478 | -106.59803 | 5315 ft | 19 kts | 296° |
| 2026-05-06 00:43 | 35.04541 | -106.59941 | 5318 ft | 18 kts | 301° |
| 2026-05-06 00:43 | 35.04573 | -106.60087 | 5318 ft | 18 kts | 274° |
| 2026-05-06 00:43 | 35.04574 | -106.60235 | 5320 ft | 17 kts | 270° |
| 2026-05-06 00:44 | 35.04576 | -106.60377 | 5320 ft | 16 kts | 270° |
| 2026-05-06 00:44 | 35.04577 | -106.60520 | 5320 ft | 19 kts | 270° |
| 2026-05-06 00:44 | 35.04578 | -106.60707 | 5320 ft | 23 kts | 270° |
| 2026-05-06 00:44 | 35.04579 | -106.60897 | 5315 ft | 22 kts | 270° |
| 2026-05-06 00:45 | 35.04580 | -106.61086 | 5314 ft | 22 kts | 270° |
| 2026-05-06 00:45 | 35.04581 | -106.61258 | 5314 ft | 20 kts | 270° |
| 2026-05-06 00:45 | 35.04558 | -106.61384 | 5320 ft | 15 kts | 258° |
| 2026-05-06 00:45 | 35.04556 | -106.61501 | 5315 ft | 7 kts | 273° |
| 2026-05-06 00:46 | 35.04578 | -106.61555 | 5315 ft | 7 kts | 322° |
| 2026-05-06 00:46 | 35.04627 | -106.61554 | 5314 ft | 7 kts | 11° |
| 2026-05-06 00:46 | 35.04674 | -106.61542 | 5315 ft | 7 kts | 11° |
| 2026-05-06 00:46 | 35.04687 | -106.61539 | 5314 ft | 0 kts | 12° |